Time;durP1;ratioP1;P1;durP2;ratioP2;P2;SDS_P1;SDS_P2;PMS_P1;PMS_P2;Temp;Humidity;BMP_temperature;BMP_pressure;BME280_temperature;BME280_humidity;BME280_pressure;Samples;Min_cycle;Max_cycle;Signal;HPM_P1;HPM_P2
2023/05/11 00:01:41;;;;;;;;;;;;;;;11.80;100.00;101363.06;5057544;28;957;-70
2023/05/11 00:04:06;;;;;;;;;;;;;;;11.82;100.00;101361.25;5061247;28;1084;-71
2023/05/11 00:06:32;;;;;;;;;;;;;;;11.82;100.00;101361.25;5067083;28;1012;-70
2023/05/11 00:08:57;;;;;;;;;;;;;;;11.80;100.00;101361.31;5057763;28;1321;-70
2023/05/11 00:11:22;;;;;;;;;;;;;;;11.80;100.00;101358.69;5053569;28;1087;-70
2023/05/11 00:13:47;;;;;;;;;;;;;;;11.79;100.00;101359.66;5061394;28;1293;-73
2023/05/11 00:16:13;;;;;;;;;;;;;;;11.80;100.00;101352.69;5058505;28;1011;-71
2023/05/11 00:18:38;;;;;;;;;;;;;;;11.80;100.00;101352.69;5059789;28;1910;-72
2023/05/11 00:21:04;;;;;;;;;;;;;;;11.82;100.00;101356.03;5053845;28;1091;-72
2023/05/11 00:23:29;;;;;;;;;;;;;;;11.83;100.00;101357.69;5055402;28;1334;-72
2023/05/11 00:25:54;;;;;;;;;;;;;;;11.85;100.00;101360.97;5052439;28;1382;-71
2023/05/11 00:28:19;;;;;;;;;;;;;;;11.85;100.00;101345.38;5064438;28;1322;-71
2023/05/11 00:30:45;;;;;;;;;;;;;;;11.85;100.00;101345.38;5061597;28;1560;-74
2023/05/11 00:33:11;;;;;;;;;;;;;;;11.85;100.00;101355.78;5074331;28;1240;-71
2023/05/11 00:35:36;;;;;;;;;;;;;;;11.84;100.00;101356.72;5056079;28;1327;-71
2023/05/11 00:38:02;;;;;;;;;;;;;;;11.85;100.00;101346.22;5058252;28;1917;-70
2023/05/11 00:40:27;;;;;;;;;;;;;;;11.87;100.00;101353.88;5049454;28;1301;-70
2023/05/11 00:42:53;;;;;;;;;;;;;;;11.89;100.00;101347.63;5066896;28;1215;-74
2023/05/11 00:45:18;;;;;;;;;;;;;;;11.89;100.00;101350.22;5063587;28;1264;-74
2023/05/11 00:47:43;;;;;;;;;;;;;;;11.86;100.00;101347.03;5055866;28;1504;-71
2023/05/11 00:50:08;;;;;;;;;;;;;;;11.84;100.00;101354.13;5061037;28;1533;-71
2023/05/11 00:52:34;;;;;;;;;;;;;;;11.80;100.00;101353.50;5058196;28;1283;-71
2023/05/11 00:54:59;;;;;;;;;;;;;;;11.79;100.00;101345.84;5052074;28;1756;-72
2023/05/11 00:57:25;;;;;;;;;;;;;;;11.77;100.00;101343.38;5059008;28;1961;-70
2023/05/11 00:59:50;;;;;;;;;;;;;;;11.76;100.00;101352.13;5065024;28;1446;-70
2023/05/11 01:02:16;;;;;;;;;;;;;;;11.74;100.00;101347.97;5060323;28;1227;-71
2023/05/11 01:04:41;;;;;;;;;;;;;;;11.72;100.00;101345.50;5066493;28;1195;-71
2023/05/11 01:07:20;;;;;;;;;;;;;;;11.70;100.00;101352.59;5062841;28;1748;-71
2023/05/11 01:09:59;;;;;;;;;;;;;;;11.68;100.00;101354.47;5056200;28;1278;-71
2023/05/11 01:12:48;;;;;;;;;;;;;;;11.68;100.00;101355.28;5059289;28;1531;-71
2023/05/11 01:15:17;;;;;;;;;;;;;;;11.69;100.00;101356.94;5044695;28;1499;-70
2023/05/11 01:17:52;;;;;;;;;;;;;;;11.72;100.00;101355.88;5059462;28;1898;-72
2023/05/11 01:20:19;;;;;;;;;;;;;;;11.73;100.00;101351.50;5064148;28;1063;-72
2023/05/11 01:22:47;;;;;;;;;;;;;;;11.75;100.00;101354.81;5063494;28;1309;-71
2023/05/11 01:25:20;;;;;;;;;;;;;;;11.77;100.00;101355.53;5054433;28;1468;-70
2023/05/11 01:28:05;;;;;;;;;;;;;;;11.79;100.00;101356.22;5077064;28;1340;-74
2023/05/11 01:30:56;;;;;;;;;;;;;;;11.80;100.00;101357.88;5062464;28;1013;-71
2023/05/11 01:33:26;;;;;;;;;;;;;;;11.83;100.00;101368.09;5051470;28;1151;-71
2023/05/11 01:35:53;;;;;;;;;;;;;;;11.84;100.00;101359.34;5058383;28;1107;-71
2023/05/11 01:38:20;;;;;;;;;;;;;;;11.84;100.00;101354.97;5054202;28;1951;-72
2023/05/11 01:40:50;;;;;;;;;;;;;;;11.81;100.00;101351.72;5052471;28;1001;-71
2023/05/11 01:43:19;;;;;;;;;;;;;;;11.81;100.00;101354.31;5058717;28;1092;-71
2023/05/11 01:45:46;;;;;;;;;;;;;;;11.81;100.00;101362.13;5067626;28;1285;-70
2023/05/11 01:48:15;;;;;;;;;;;;;;;11.78;100.00;101351.97;5062382;28;1139;-70
2023/05/11 01:50:41;;;;;;;;;;;;;;;11.74;100.00;101364.38;5053949;28;1303;-70
2023/05/11 01:53:07;;;;;;;;;;;;;;;11.75;100.00;101354.81;5064057;28;1521;-70
2023/05/11 01:55:34;;;;;;;;;;;;;;;11.75;100.00;101362.59;5067775;28;1164;-69
2023/05/11 01:58:02;;;;;;;;;;;;;;;11.74;100.00;101358.34;5062700;28;1898;-70
2023/05/11 02:00:27;;;;;;;;;;;;;;;11.75;100.00;101370.41;5056991;28;1215;-73
2023/05/11 02:02:53;;;;;;;;;;;;;;;11.75;100.00;101371.22;5065523;28;1591;-69
2023/05/11 02:05:21;;;;;;;;;;;;;;;11.78;100.00;101364.97;5067536;28;1434;-71
2023/05/11 02:07:48;;;;;;;;;;;;;;;11.80;100.00;101379.50;5055093;28;1319;-70
2023/05/11 02:10:14;;;;;;;;;;;;;;;11.82;100.00;101382.03;5066508;28;1551;-71
2023/05/11 02:12:41;;;;;;;;;;;;;;;11.84;100.00;101380.13;5059690;28;1236;-70
2023/05/11 02:15:08;;;;;;;;;;;;;;;11.85;100.00;101377.41;5061953;28;1467;-70
2023/05/11 02:17:34;;;;;;;;;;;;;;;11.85;100.00;101366.19;5064812;28;1894;-70
2023/05/11 02:20:00;;;;;;;;;;;;;;;11.85;100.00;101368.78;5064317;28;1077;-70
2023/05/11 02:22:27;;;;;;;;;;;;;;;11.84;100.00;101377.53;5064456;28;1300;-70
2023/05/11 02:24:52;;;;;;;;;;;;;;;11.85;100.00;101376.56;5061381;28;1276;-71
2023/05/11 02:27:17;;;;;;;;;;;;;;;11.83;100.00;101373.28;5067498;28;1327;-69
2023/05/11 02:29:43;;;;;;;;;;;;;;;11.81;100.00;101375.13;5065310;28;1215;-70
2023/05/11 02:32:11;;;;;;;;;;;;;;;11.79;100.00;101369.22;5063187;28;1505;-70
2023/05/11 02:34:48;;;;;;;;;;;;;;;11.75;100.00;101370.41;5050900;28;1037;-70
2023/05/11 02:37:17;;;;;;;;;;;;;;;11.74;100.00;101368.75;5055637;28;1898;-72
2023/05/11 02:39:44;;;;;;;;;;;;;;;11.70;100.00;101369.00;5065055;28;1493;-71
2023/05/11 02:42:12;;;;;;;;;;;;;;;11.67;100.00;101369.22;5062677;28;1314;-69
2023/05/11 02:44:39;;;;;;;;;;;;;;;11.64;100.00;101369.50;5065498;28;1236;-72
2023/05/11 02:47:06;;;;;;;;;;;;;;;11.62;100.00;101366.16;5066765;28;1118;-71
2023/05/11 02:49:33;;;;;;;;;;;;;;;11.60;100.00;101368.06;5056567;28;1398;-70
2023/05/11 02:52:00;;;;;;;;;;;;;;;11.59;100.00;101375.97;5055963;28;1540;-70
2023/05/11 02:54:26;;;;;;;;;;;;;;;11.57;100.00;101368.28;5059175;28;1310;-72
2023/05/11 02:56:51;;;;;;;;;;;;;;;11.56;100.00;101361.44;5050438;28;1898;-70
2023/05/11 02:59:16;;;;;;;;;;;;;;;11.56;100.00;101361.44;5064740;28;1215;-71
2023/05/11 03:01:42;;;;;;;;;;;;;;;11.54;100.00;101359.91;5054785;28;1258;-71
2023/05/11 03:04:07;;;;;;;;;;;;;;;11.52;100.00;101354.81;5060758;28;1338;-70
2023/05/11 03:06:32;;;;;;;;;;;;;;;11.52;100.00;101362.63;5064151;28;1373;-70
2023/05/11 03:08:58;;;;;;;;;;;;;;;11.50;100.00;101367.09;5063727;28;1496;-70
2023/05/11 03:11:24;;;;;;;;;;;;;;;11.48;100.00;101374.19;5063477;28;1520;-70
2023/05/11 03:13:50;;;;;;;;;;;;;;;11.47;100.00;101366.50;5060350;28;1255;-70
2023/05/11 03:16:16;;;;;;;;;;;;;;;11.44;100.00;101364.97;5059715;28;1195;-70
2023/05/11 03:18:41;;;;;;;;;;;;;;;11.42;100.00;101359.91;5056028;28;1894;-71
2023/05/11 03:21:07;;;;;;;;;;;;;;;11.44;100.00;101362.38;5061563;28;1390;-70
2023/05/11 03:23:34;;;;;;;;;;;;;;;11.42;100.00;101364.28;5059123;28;1266;-70
2023/05/11 03:26:00;;;;;;;;;;;;;;;11.39;100.00;101348.91;5056971;28;1319;-71
2023/05/11 03:28:25;;;;;;;;;;;;;;;11.35;100.00;101357.88;5059891;28;1113;-70
2023/05/11 03:30:51;;;;;;;;;;;;;;;11.34;100.00;101364.03;5060744;28;1191;-71
2023/05/11 03:33:17;;;;;;;;;;;;;;;11.30;100.00;101360.84;5059223;28;1115;-70
2023/05/11 03:35:42;;;;;;;;;;;;;;;11.30;100.00;101360.03;5062840;28;1285;-70
2023/05/11 03:38:10;;;;;;;;;;;;;;;11.28;100.00;101362.72;5063221;28;1898;-71
2023/05/11 03:40:36;;;;;;;;;;;;;;;11.28;100.00;101356.69;5065025;28;1108;-70
2023/05/11 03:43:03;;;;;;;;;;;;;;;11.28;100.00;101356.69;5060075;28;1473;-70
2023/05/11 03:45:30;;;;;;;;;;;;;;;11.28;100.00;101356.69;5056554;28;1084;-71
2023/05/11 03:47:56;;;;;;;;;;;;;;;11.27;100.00;101361.06;5061294;28;1009;-72
2023/05/11 03:50:21;;;;;;;;;;;;;;;11.27;100.00;101349.88;5059175;28;1269;-72
2023/05/11 03:52:47;;;;;;;;;;;;;;;11.29;100.00;101361.78;5059407;28;1321;-70
2023/05/11 03:55:13;;;;;;;;;;;;;;;11.32;100.00;101352.94;5057264;28;1222;-70
2023/05/11 03:57:38;;;;;;;;;;;;;;;11.32;100.00;101358.13;5054974;28;1890;-70
2023/05/11 04:00:04;;;;;;;;;;;;;;;11.32;100.00;101356.34;5053535;28;1130;-73
2023/05/11 04:02:29;;;;;;;;;;;;;;;11.33;100.00;101359.78;5054275;28;1509;-70
2023/05/11 04:04:55;;;;;;;;;;;;;;;11.34;100.00;101361.44;5063067;28;1142;-69
2023/05/11 04:07:20;;;;;;;;;;;;;;;11.34;100.00;101361.44;5061100;28;1328;-74
2023/05/11 04:09:45;;;;;;;;;;;;;;;11.35;100.00;101365.66;5059623;28;1650;-70
2023/05/11 04:12:10;;;;;;;;;;;;;;;11.36;100.00;101364.75;5065703;28;1430;-70
2023/05/11 04:14:36;;;;;;;;;;;;;;;11.38;100.00;101368.06;5065577;28;1254;-71
2023/05/11 04:17:01;;;;;;;;;;;;;;;11.39;100.00;101364.50;5062438;28;1953;-69
2023/05/11 04:19:26;;;;;;;;;;;;;;;11.39;100.00;101365.31;5062565;28;1215;-69
2023/05/11 04:21:51;;;;;;;;;;;;;;;11.40;100.00;101366.97;5055271;28;1412;-70
2023/05/11 04:24:17;;;;;;;;;;;;;;;11.41;100.00;101365.19;5066653;28;1083;-69
2023/05/11 04:26:42;;;;;;;;;;;;;;;11.42;100.00;101379.88;5063461;28;1198;-70
2023/05/11 04:29:07;;;;;;;;;;;;;;;11.42;100.00;101379.88;5057520;28;1293;-72
2023/05/11 04:31:32;;;;;;;;;;;;;;;11.43;100.00;101371.13;5065545;28;1528;-70
2023/05/11 04:33:58;;;;;;;;;;;;;;;11.44;100.00;101377.97;5063523;28;1388;-72
2023/05/11 04:36:23;;;;;;;;;;;;;;;11.43;100.00;101381.50;5065600;28;1240;-70
2023/05/11 04:38:49;;;;;;;;;;;;;;;11.41;100.00;101379.03;5065579;28;1902;-72
2023/05/11 04:41:14;;;;;;;;;;;;;;;11.42;100.00;101377.28;5059801;28;1240;-71
2023/05/11 04:43:39;;;;;;;;;;;;;;;11.42;100.00;101382.47;5067753;28;1327;-70
2023/05/11 04:46:05;;;;;;;;;;;;;;;11.43;100.00;101386.72;5067044;28;1199;-70
2023/05/11 04:48:30;;;;;;;;;;;;;;;11.44;100.00;101388.38;5062032;28;1267;-69
2023/05/11 04:50:55;;;;;;;;;;;;;;;11.44;100.00;101394.38;5068007;28;1203;-72
2023/05/11 04:53:21;;;;;;;;;;;;;;;11.46;100.00;101389.06;5061998;28;1311;-69
2023/05/11 04:55:47;;;;;;;;;;;;;;;11.46;100.00;101399.44;5062551;28;1091;-69
2023/05/11 04:58:12;;;;;;;;;;;;;;;11.45;100.00;101395.19;5061178;28;1891;-70
2023/05/11 05:00:37;;;;;;;;;;;;;;;11.46;100.00;101396.03;5055372;28;1599;-70
2023/05/11 05:03:03;;;;;;;;;;;;;;;11.46;100.00;101391.66;5064050;28;1313;-72
2023/05/11 05:05:28;;;;;;;;;;;;;;;11.45;100.00;101397.81;5063383;28;1216;-69
2023/05/11 05:07:53;;;;;;;;;;;;;;;11.46;100.00;101399.44;5067103;28;1220;-69
2023/05/11 05:10:19;;;;;;;;;;;;;;;11.48;100.00;101401.94;5070224;28;1184;-71
2023/05/11 05:12:44;;;;;;;;;;;;;;;11.48;100.00;101402.78;5061176;28;1427;-69
2023/05/11 05:15:10;;;;;;;;;;;;;;;11.50;100.00;101400.88;5062468;28;1521;-71
2023/05/11 05:17:35;;;;;;;;;;;;;;;11.50;100.00;101390.50;5061797;28;1906;-70
2023/05/11 05:20:01;;;;;;;;;;;;;;;11.50;100.00;101403.47;5060163;28;1639;-70
2023/05/11 05:22:26;;;;;;;;;;;;;;;11.52;100.00;101391.19;5062832;28;1327;-72
2023/05/11 05:24:52;;;;;;;;;;;;;;;11.54;100.00;101402.31;5052466;28;1111;-70
2023/05/11 05:27:17;;;;;;;;;;;;;;;11.57;100.00;101398.63;5056824;28;1363;-70
2023/05/11 05:29:42;;;;;;;;;;;;;;;11.60;100.00;101404.44;5062286;28;988;-70
2023/05/11 05:32:07;;;;;;;;;;;;;;;11.63;100.00;101409.38;5056795;28;1193;-70
2023/05/11 05:34:32;;;;;;;;;;;;;;;11.67;100.00;101413.41;5069310;28;1064;-71
2023/05/11 05:36:58;;;;;;;;;;;;;;;11.72;100.00;101407.03;5062030;28;1897;-71
2023/05/11 05:39:23;;;;;;;;;;;;;;;11.75;100.00;101411.97;5062251;28;1305;-70
2023/05/11 05:41:48;;;;;;;;;;;;;;;11.79;100.00;101408.22;5063671;28;1139;-69
2023/05/11 05:44:13;;;;;;;;;;;;;;;11.83;100.00;101420.06;5064759;28;1194;-74
2023/05/11 05:46:39;;;;;;;;;;;;;;;11.86;100.00;101414.59;5066489;28;1063;-72
2023/05/11 05:49:04;;;;;;;;;;;;;;;11.89;100.00;101409.19;5063078;28;1231;-71
2023/05/11 05:51:30;;;;;;;;;;;;;;;11.93;100.00;101415.81;5063331;28;1223;-71
2023/05/11 05:53:55;;;;;;;;;;;;;;;11.95;100.00;101419.09;5060124;28;1115;-70
2023/05/11 05:56:20;;;;;;;;;;;;;;;11.96;100.00;101420.75;5062964;28;1448;-70
2023/05/11 05:58:46;;;;;;;;;;;;;;;11.99;100.00;101430.94;5059365;28;1951;-70
2023/05/11 06:01:11;;;;;;;;;;;;;;;12.01;100.00;101434.22;5067002;28;1235;-70
2023/05/11 06:03:36;;;;;;;;;;;;;;;12.03;100.00;101437.53;5062903;28;1279;-70
2023/05/11 06:06:01;;;;;;;;;;;;;;;12.02;100.00;101445.44;5061699;28;1265;-70
2023/05/11 06:08:27;;;;;;;;;;;;;;;12.02;100.00;101440.25;5065424;28;1224;-71
2023/05/11 06:10:52;;;;;;;;;;;;;;;12.02;100.00;101446.28;5062269;28;1171;-70
2023/05/11 06:13:17;;;;;;;;;;;;;;;12.03;100.00;101450.53;5058112;28;1324;-70
2023/05/11 06:15:42;;;;;;;;;;;;;;;12.03;100.00;101447.91;5058454;28;1212;-70
2023/05/11 06:18:08;;;;;;;;;;;;;;;12.07;100.00;101444.16;5065257;28;1991;-71
2023/05/11 06:20:33;;;;;;;;;;;;;;;12.06;100.00;101445.09;5066215;28;1295;-70
2023/05/11 06:22:58;;;;;;;;;;;;;;;12.08;100.00;101440.59;5065091;28;1219;-72
2023/05/11 06:25:24;;;;;;;;;;;;;;;12.11;100.00;101445.56;5057772;28;1215;-72
2023/05/11 06:27:49;;;;;;;;;;;;;;;12.10;100.00;101432.66;5059406;28;1369;-70
2023/05/11 06:30:14;;;;;;;;;;;;;;;12.13;100.00;101438.47;5059111;28;1619;-71
2023/05/11 06:32:39;;;;;;;;;;;;;;;12.17;100.00;101455.50;5053332;28;1249;-70
2023/05/11 06:35:05;;;;;;;;;;;;;;;12.19;100.00;101450.97;5066540;28;1335;-70
2023/05/11 06:37:31;;;;;;;;;;;;;;;12.22;100.00;101453.34;5061742;28;1957;-70
2023/05/11 06:39:57;;;;;;;;;;;;;;;12.20;100.00;101447.44;5065407;28;1140;-71
2023/05/11 06:42:22;;;;;;;;;;;;;;;12.20;100.00;101442.22;5058433;28;1184;-71
2023/05/11 06:44:47;;;;;;;;;;;;;;;12.17;100.00;101445.09;5059349;28;1517;-70
2023/05/11 06:47:12;;;;;;;;;;;;;;;12.19;100.00;101443.19;5061583;28;1264;-70
2023/05/11 06:49:38;;;;;;;;;;;;;;;12.20;100.00;101444.84;5067835;28;1544;-74
2023/05/11 06:52:03;;;;;;;;;;;;;;;12.21;100.00;101451.72;5065329;28;1366;-71
2023/05/11 06:54:28;;;;;;;;;;;;;;;12.23;100.00;101455.00;5055845;28;1407;-70
2023/05/11 06:56:54;;;;;;;;;;;;;;;12.26;100.00;101458.31;5063488;28;1279;-72
2023/05/11 06:59:19;;;;;;;;;;;;;;;12.27;100.00;101450.38;5061946;28;1894;-71
2023/05/11 07:01:45;;;;;;;;;;;;;;;12.26;100.00;101453.09;5062830;28;1242;-70
2023/05/11 07:04:10;;;;;;;;;;;;;;;12.29;100.00;101460.69;5061105;28;1270;-70
2023/05/11 07:06:35;;;;;;;;;;;;;;;12.28;100.00;101462.47;5065537;28;1243;-72
2023/05/11 07:09:02;;;;;;;;;;;;;;;12.27;100.00;101465.97;5066876;28;1640;-72
2023/05/11 07:11:27;;;;;;;;;;;;;;;12.27;100.00;101465.97;5062624;28;1246;-70
2023/05/11 07:13:53;;;;;;;;;;;;;;;12.28;100.00;101466.84;5067882;28;1294;-73
2023/05/11 07:16:18;;;;;;;;;;;;;;;12.31;100.00;101461.38;5068552;28;1211;-71
2023/05/11 07:18:43;;;;;;;;;;;;;;;12.31;100.00;101466.56;5063395;28;1898;-70
2023/05/11 07:21:09;;;;;;;;;;;;;;;12.31;100.00;101461.38;5063341;28;1596;-72
2023/05/11 07:23:34;;;;;;;;;;;;;;;12.33;100.00;101469.88;5060179;28;1093;-72
2023/05/11 07:26:00;;;;;;;;;;;;;;;12.35;100.00;101473.19;5060524;28;1255;-71
2023/05/11 07:28:25;;;;;;;;;;;;;;;12.33;100.00;101469.88;5055455;28;1345;-70
2023/05/11 07:30:51;;;;;;;;;;;;;;;12.35;100.00;101473.19;5057633;28;1057;-71
2023/05/11 07:33:16;;;;;;;;;;;;;;;12.35;100.00;101473.19;5065408;28;1154;-70
2023/05/11 07:35:41;;;;;;;;;;;;;;;12.38;100.00;101473.75;5062335;28;1461;-72
2023/05/11 07:38:08;;;;;;;;;;;;;;;12.36;100.00;101474.84;5065719;28;1965;-74
2023/05/11 07:40:34;;;;;;;;;;;;;;;12.38;100.00;101472.94;5064638;28;1147;-70
2023/05/11 07:42:59;;;;;;;;;;;;;;;12.42;100.00;101479.56;5060421;28;1103;-70
2023/05/11 07:45:24;;;;;;;;;;;;;;;12.42;100.00;101479.56;5066392;28;1093;-72
2023/05/11 07:47:49;;;;;;;;;;;;;;;12.43;100.00;101481.22;5057517;28;1107;-70
2023/05/11 07:50:15;;;;;;;;;;;;;;;12.46;100.00;101480.97;5063819;28;1240;-71
2023/05/11 07:52:40;;;;;;;;;;;;;;;12.49;100.00;101485.94;5064073;28;1547;-70
2023/05/11 07:55:05;;;;;;;;;;;;;;;12.51;100.00;101481.44;5058216;28;1275;-71
2023/05/11 07:57:31;;;;;;;;;;;;;;;12.51;100.00;101478.84;5058497;28;1914;-71
2023/05/11 07:59:56;;;;;;;;;;;;;;;12.53;100.00;101476.13;5061798;28;1247;-70
2023/05/11 08:02:21;;;;;;;;;;;;;;;12.56;100.00;101476.72;5056214;28;1199;-71
2023/05/11 08:04:46;;;;;;;;;;;;;;;12.61;100.00;101479.75;5063538;28;1213;-71
2023/05/11 08:07:12;;;;;;;;;;;;;;;12.65;100.00;101475.97;5054307;28;1105;-71
2023/05/11 08:09:37;;;;;;;;;;;;;;;12.68;100.00;101475.72;5059730;28;1290;-71
2023/05/11 08:12:02;;;;;;;;;;;;;;;12.74;100.00;101480.44;5062154;28;1215;-70
2023/05/11 08:14:28;;;;;;;;;;;;;;;12.77;100.00;101482.78;5068195;28;1509;-70
2023/05/11 08:16:53;;;;;;;;;;;;;;;12.82;100.00;101487.63;5066554;28;1251;-70
2023/05/11 08:19:18;;;;;;;;;;;;;;;12.86;100.00;101481.22;5062581;28;1981;-71
2023/05/11 08:21:45;;;;;;;;;;;;;;;12.88;100.00;101479.31;5063070;28;1294;-71
2023/05/11 08:24:10;;;;;;;;;;;;;;;12.86;100.00;101483.00;5067972;28;1220;-71
2023/05/11 08:26:35;;;;;;;;;;;;;;;12.88;100.00;101481.09;5065635;28;1286;-70
2023/05/11 08:29:00;;;;;;;;;;;;;;;12.93;100.00;101473.75;5067102;28;1141;-70
2023/05/11 08:31:26;;;;;;;;;;;;;;;12.99;100.00;101489.69;5068753;28;1244;-71
2023/05/11 08:33:51;;;;;;;;;;;;;;;13.03;100.00;101485.06;5064236;28;1096;-72
2023/05/11 08:36:16;;;;;;;;;;;;;;;13.06;100.00;101484.81;5059735;28;1132;-70
2023/05/11 08:38:41;;;;;;;;;;;;;;;13.13;100.00;101475.56;5069045;28;1902;-72
2023/05/11 08:41:07;;;;;;;;;;;;;;;13.18;100.00;101473.38;5067098;28;1243;-70
2023/05/11 08:43:37;;;;;;;;;;;;;;;13.24;100.00;101467.69;5061765;28;1199;-71
2023/05/11 08:46:03;;;;;;;;;;;;;;;13.32;100.00;101468.88;5066908;28;1115;-70
2023/05/11 08:48:29;;;;;;;;;;;;;;;13.39;100.00;101470.00;5058801;28;1277;-70
2023/05/11 08:50:55;;;;;;;;;;;;;;;13.47;100.00;101467.56;5061931;28;1234;-69
2023/05/11 08:53:21;;;;;;;;;;;;;;;13.54;100.00;101479.16;5068375;28;1287;-70
2023/05/11 08:55:47;;;;;;;;;;;;;;;13.58;100.00;101480.53;5066255;28;1259;-73
2023/05/11 08:58:14;;;;;;;;;;;;;;;13.67;100.00;101477.16;5066354;28;1889;-70
2023/05/11 09:00:39;;;;;;;;;;;;;;;13.82;100.00;101475.88;5063897;28;1235;-71
2023/05/11 09:03:04;;;;;;;;;;;;;;;13.99;100.00;101479.66;5068364;28;1140;-71
2023/05/11 09:05:31;;;;;;;;;;;;;;;14.10;100.00;101476.09;5068374;28;1235;-71
2023/05/11 09:07:59;;;;;;;;;;;;;;;14.26;100.00;101476.44;5061268;28;1176;-71
2023/05/11 09:10:24;;;;;;;;;;;;;;;14.44;100.00;101483.63;5065376;28;1509;-70
2023/05/11 09:12:49;;;;;;;;;;;;;;;14.56;100.00;101482.56;5081608;28;1226;-70
2023/05/11 09:15:15;;;;;;;;;;;;;;;14.63;100.00;101478.47;5086082;28;1589;-70
2023/05/11 09:17:40;;;;;;;;;;;;;;;14.65;100.00;101484.38;5065732;28;1886;-70
2023/05/11 09:20:06;;;;;;;;;;;;;;;14.69;100.00;101483.16;5066390;28;1403;-72
2023/05/11 09:22:40;;;;;;;;;;;;;;;14.72;100.00;101488.09;5066019;28;1674;-70
2023/05/11 09:25:05;;;;;;;;;;;;;;;14.70;100.00;101484.81;5058789;28;1127;-71
2023/05/11 09:27:31;;;;;;;;;;;;;;;14.67;100.00;101485.06;5063407;28;1118;-71
2023/05/11 09:29:59;;;;;;;;;;;;;;;14.69;100.00;101488.38;5068569;28;1087;-72
2023/05/11 09:32:25;;;;;;;;;;;;;;;14.76;100.00;101484.25;5054988;28;1270;-72
2023/05/11 09:34:50;;;;;;;;;;;;;;;14.94;100.00;101487.00;5059828;28;968;-70
2023/05/11 09:37:16;;;;;;;;;;;;;;;14.97;100.00;101491.97;5063228;28;1894;-72
2023/05/11 09:39:42;;;;;;;;;;;;;;;14.92;100.00;101482.91;5065741;28;1117;-71
2023/05/11 09:42:10;;;;;;;;;;;;;;;14.89;100.00;101483.97;5061099;28;1143;-71
2023/05/11 09:44:35;;;;;;;;;;;;;;;14.88;100.00;101488.38;5083743;28;1174;-71
2023/05/11 09:47:09;;;;;;;;;;;;;;;14.92;100.00;101488.13;5058041;28;1140;-70
2023/05/11 09:49:34;;;;;;;;;;;;;;;14.98;100.00;101492.81;5062361;28;1091;-70
2023/05/11 09:52:00;;;;;;;;;;;;;;;14.99;100.00;101495.25;5065387;28;1227;-71
2023/05/11 09:54:25;;;;;;;;;;;;;;;15.02;100.00;101494.16;5064574;28;1690;-72
2023/05/11 09:56:57;;;;;;;;;;;;;;;15.09;100.00;101496.09;5067046;28;1182;-70
2023/05/11 09:59:41;;;;;;;;;;;;;;;15.05;100.00;101493.88;5066283;28;1953;-70
2023/05/11 10:02:24;;;;;;;;;;;;;;;15.07;100.00;101502.41;5059946;28;1338;-69
2023/05/11 10:04:51;;;;;;;;;;;;;;;15.00;100.00;101496.91;5068119;28;1172;-73
2023/05/11 10:07:29;;;;;;;;;;;;;;;15.01;100.00;101497.72;5055002;28;1092;-70
2023/05/11 10:09:55;;;;;;;;;;;;;;;14.94;100.00;101488.81;5058203;28;1311;-73
2023/05/11 10:12:22;;;;;;;;;;;;;;;14.88;100.00;101488.38;5063784;28;1099;-70
2023/05/11 10:14:50;;;;;;;;;;;;;;;14.82;100.00;101493.34;5068815;28;1368;-71
2023/05/11 10:17:16;;;;;;;;;;;;;;;14.82;100.00;101483.72;5055899;28;1890;-70
2023/05/11 10:19:41;;;;;;;;;;;;;;;14.90;100.00;101487.41;5063396;28;1485;-72
2023/05/11 10:22:07;;;;;;;;;;;;;;;14.99;100.00;101486.59;5061701;28;1208;-70
2023/05/11 10:24:32;;;;;;;;;;;;;;;15.11;100.00;101485.50;5061309;28;1509;-70
2023/05/11 10:26:57;;;;;;;;;;;;;;;15.25;99.90;101482.44;5057345;28;1296;-71
2023/05/11 10:29:23;;;;;;;;;;;;;;;15.38;99.07;101488.22;5058983;28;1247;-71
2023/05/11 10:31:50;;;;;;;;;;;;;;;15.48;98.42;101479.53;5067179;28;1228;-70
2023/05/11 10:34:16;;;;;;;;;;;;;;;15.60;99.42;101479.25;5055623;28;2251;-70
2023/05/11 10:36:42;;;;;;;;;;;;;;;15.73;99.04;101473.72;5065394;28;1285;-70
2023/05/11 10:39:07;;;;;;;;;;;;;;;15.80;98.66;101484.44;5061841;28;1893;-70
2023/05/11 10:41:35;;;;;;;;;;;;;;;15.82;98.81;101478.06;5066373;28;1200;-70
2023/05/11 10:44:19;;;;;;;;;;;;;;;15.80;97.39;101489.66;5065046;28;1290;-73
2023/05/11 10:46:44;;;;;;;;;;;;;;;15.80;97.52;101485.25;5064375;28;1111;-70
2023/05/11 10:49:25;;;;;;;;;;;;;;;15.85;97.98;101485.66;5061444;28;1267;-69
2023/05/11 10:51:53;;;;;;;;;;;;;;;15.90;97.54;101488.66;5065677;28;1334;-71
2023/05/11 10:54:37;;;;;;;;;;;;;;;15.87;96.33;101485.50;5056877;28;1207;-70
2023/05/11 10:57:05;;;;;;;;;;;;;;;15.84;95.84;101488.41;5061327;28;1564;-70
2023/05/11 10:59:56;;;;;;;;;;;;;;;15.85;95.41;101496.13;5058225;28;1952;-70
2023/05/11 11:02:21;;;;;;;;;;;;;;;15.90;94.21;101495.69;5064917;28;1513;-70
2023/05/11 11:04:48;;;;;;;;;;;;;;;15.98;93.28;101481.88;5061555;28;1619;-70
2023/05/11 11:07:17;;;;;;;;;;;;;;;16.03;94.76;101477.03;5067926;28;1203;-72
2023/05/11 11:10:11;;;;;;;;;;;;;;;16.14;94.67;101482.09;5059357;28;1215;-70
2023/05/11 11:12:37;;;;;;;;;;;;;;;16.29;92.52;101475.41;5064397;28;1275;-70
2023/05/11 11:15:06;;;;;;;;;;;;;;;16.29;93.92;101485.88;5062655;28;1520;-72
2023/05/11 11:17:35;;;;;;;;;;;;;;;16.32;93.01;101480.34;5053966;28;1979;-71
2023/05/11 11:20:06;;;;;;;;;;;;;;;16.28;93.53;101481.59;5057514;28;1259;-71
2023/05/11 11:22:34;;;;;;;;;;;;;;;16.35;91.52;101480.06;5062746;28;1216;-71
2023/05/11 11:25:04;;;;;;;;;;;;;;;16.31;91.87;101478.69;5056491;28;1146;-70
2023/05/11 11:27:38;;;;;;;;;;;;;;;16.31;91.65;101483.94;5062305;28;1337;-70
2023/05/11 11:30:27;;;;;;;;;;;;;;;16.38;90.92;101484.97;5049713;28;1166;-71
2023/05/11 11:32:54;;;;;;;;;;;;;;;16.28;90.54;101478.16;5051496;28;1322;-71
2023/05/11 11:35:38;;;;;;;;;;;;;;;16.25;91.43;101478.47;5066015;28;874;-70
2023/05/11 11:38:05;;;;;;;;;;;;;;;16.40;88.45;101476.97;5060882;28;1894;-71
2023/05/11 11:40:36;;;;;;;;;;;;;;;16.31;89.83;101478.69;5054471;28;1222;-72
2023/05/11 11:43:09;;;;;;;;;;;;;;;16.31;91.16;101473.44;5065701;28;1140;-71
2023/05/11 11:45:35;;;;;;;;;;;;;;;16.39;91.04;101476.16;5066994;28;1052;-70
2023/05/11 11:48:06;;;;;;;;;;;;;;;16.43;91.00;101472.28;5067194;28;1123;-70
2023/05/11 11:50:32;;;;;;;;;;;;;;;16.46;90.47;101466.75;5066070;28;1109;-70
2023/05/11 11:52:58;;;;;;;;;;;;;;;16.58;88.78;101475.22;5063364;28;1532;-70
2023/05/11 11:55:42;;;;;;;;;;;;;;;16.49;88.33;101475.28;5056102;28;1275;-71
2023/05/11 11:58:07;;;;;;;;;;;;;;;16.58;88.82;101469.16;5062768;28;1983;-70
2023/05/11 12:00:32;;;;;;;;;;;;;;;16.74;89.27;101469.34;5056696;28;1250;-70
2023/05/11 12:02:58;;;;;;;;;;;;;;;16.79;88.30;101467.09;5061926;28;1350;-70
2023/05/11 12:05:25;;;;;;;;;;;;;;;16.87;88.58;101464.56;5058898;28;1199;-71
2023/05/11 12:07:51;;;;;;;;;;;;;;;16.98;88.35;101464.31;5055128;28;1528;-70
2023/05/11 12:10:17;;;;;;;;;;;;;;;17.09;87.37;101467.66;5062628;28;1231;-71
2023/05/11 12:12:46;;;;;;;;;;;;;;;17.08;86.22;101471.25;5053883;28;1064;-72
2023/05/11 12:15:41;;;;;;;;;;;;;;;17.12;86.18;101475.25;5066455;28;1184;-71
2023/05/11 12:18:18;;;;;;;;;;;;;;;17.31;85.34;101469.78;5061155;28;1890;-70
2023/05/11 12:20:44;;;;;;;;;;;;;;;17.30;85.71;101473.41;5064840;28;1492;-73
2023/05/11 12:23:09;;;;;;;;;;;;;;;17.35;85.94;101463.28;5056906;28;1240;-72
2023/05/11 12:25:35;;;;;;;;;;;;;;;17.37;85.14;101469.19;5056279;28;1279;-71
2023/05/11 12:28:01;;;;;;;;;;;;;;;17.33;84.36;101470.50;5060626;28;1238;-72
2023/05/11 12:30:30;;;;;;;;;;;;;;;17.27;83.09;101476.34;5056953;28;1258;-70
2023/05/11 12:32:56;;;;;;;;;;;;;;;17.20;83.60;101470.03;5064653;28;1438;-72
2023/05/11 12:35:23;;;;;;;;;;;;;;;17.18;83.88;101472.81;5062862;28;1208;-70
2023/05/11 12:37:48;;;;;;;;;;;;;;;17.10;81.83;101471.97;5059694;28;1914;-72